Time;durP1;ratioP1;P1;durP2;ratioP2;P2;SDS_P1;SDS_P2;PMS_P1;PMS_P2;Temp;Humidity;BMP_temperature;BMP_pressure;BME280_temperature;BME280_humidity;BME280_pressure;Samples;Min_cycle;Max_cycle;Signal;HPM_P1;HPM_P2
2022/09/11 10:35:28;;;;;;;2.45;1.20;;;;;;;22.02;30.80;100721.81;5129428;27;20394;-88
2022/09/11 10:38:18;;;;;;;2.22;1.30;;;;;;;22.24;30.40;100725.31;5073716;27;20031;-88
2022/09/11 10:40:54;;;;;;;5.82;1.13;;;;;;;22.43;29.89;100720.34;5099915;28;20109;-94
2022/09/11 10:43:23;;;;;;;2.80;1.10;;;;;;;22.38;29.80;100697.69;5104073;28;20088;-95
2022/09/11 10:46:02;;;;;;;2.53;1.27;;;;;;;22.53;29.41;100722.34;5068573;28;20491;-94
2022/09/11 10:48:28;;;;;;;5.40;1.15;;;;;;;22.63;29.38;100719.69;5069839;28;20135;-92
2022/09/11 10:51:04;;;;;;;2.30;1.38;;;;;;;22.58;29.52;100708.75;5071811;28;20483;-94
2022/09/11 10:53:51;;;;;;;3.10;1.00;;;;;;;22.57;29.40;100717.19;5068382;28;20034;-93
2022/09/11 10:56:16;;;;;;;4.88;1.52;;;;;;;22.46;29.64;100706.22;5093108;28;20039;-96
2022/09/11 10:58:42;;;;;;;2.15;1.25;;;;;;;22.51;29.35;100697.28;5069377;28;20027;-93
2022/09/11 11:01:12;;;;;;;3.85;1.30;;;;;;;22.49;29.42;100716.59;5072743;28;20023;-95
2022/09/11 11:03:41;;;;;;;6.72;1.10;;;;;;;22.57;29.63;100711.75;5091229;28;20027;-93
2022/09/11 11:06:13;;;;;;;4.95;1.20;;;;;;;22.63;29.62;100716.97;5072247;28;20038;-94
2022/09/11 11:09:05;;;;;;;5.07;1.10;;;;;;;22.63;29.50;100716.97;5107944;28;20475;-95
2022/09/11 11:12:05;;;;;;;4.85;1.35;;;;;;;22.67;29.50;100712.63;5089684;28;20031;-96
2022/09/11 12:38:39;;;;;;;13.85;5.43;;;;;;;23.00;29.40;100628.91;5057801;28;20049;-86
2022/09/11 12:41:16;;;;;;;24.33;11.18;;;;;;;22.62;29.63;100619.97;5033016;28;20032;-87
2022/09/11 12:43:41;;;;;;;28.10;10.85;;;;;;;22.58;29.60;100627.06;5031799;28;20040;-85
2022/09/11 12:46:12;;;;;;;49.08;15.70;;;;;;;22.66;29.89;100629.28;5060644;28;20025;-84
2022/09/11 12:48:43;;;;;;;37.30;14.98;;;;;;;22.92;30.32;100617.69;5006286;28;20024;-90
2022/09/11 12:51:24;;;;;;;72.88;22.02;;;;;;;22.85;30.17;100626.09;5014154;28;20402;-91
2022/09/11 12:54:02;;;;;;;30.50;9.63;;;;;;;22.58;30.21;100616.16;5032449;28;20082;-96
2022/09/11 12:56:51;;;;;;;43.10;14.52;;;;;;;22.46;30.45;100601.91;5024728;28;20052;-96
2022/09/11 12:59:25;;;;;;;39.22;15.48;;;;;;;22.41;30.57;100597.25;5036711;28;20025;-96
2022/09/11 13:01:51;;;;;;;34.00;13.50;;;;;;;22.37;30.56;100592.56;5014125;28;20024;-96
2022/09/11 13:04:22;;;;;;;43.13;13.63;;;;;;;22.43;30.63;100602.44;5015032;28;20401;-96
2022/09/11 13:06:57;;;;;;;37.08;12.68;;;;;;;22.47;30.60;100592.66;5016799;28;20435;-96
2022/09/11 13:09:34;;;;;;;29.08;11.98;;;;;;;22.29;30.59;100586.53;5038907;28;20032;-96
2022/09/11 13:12:24;;;;;;;27.98;12.10;;;;;;;22.52;30.64;100617.19;5024243;28;20017;-96
2022/09/11 13:14:51;;;;;;;29.60;12.13;;;;;;;22.49;30.86;100609.53;5049196;28;20306;-96
2022/09/11 13:17:44;;;;;;;29.90;11.80;;;;;;;22.50;30.67;100609.28;5024651;28;20049;-96
2022/09/11 13:20:13;;;;;;;28.73;11.75;;;;;;;22.52;30.72;100600.84;5049711;28;20052;-96
2022/09/11 13:22:39;;;;;;;28.48;11.02;;;;;;;22.36;30.69;100593.66;5057466;28;20025;-96
2022/09/11 13:25:15;;;;;;;24.27;11.68;;;;;;;22.50;30.88;100608.47;5027628;28;20375;-96
2022/09/11 13:27:43;;;;;;;42.92;11.60;;;;;;;22.33;30.78;100591.47;5023886;28;20025;-95
2022/09/11 13:30:13;;;;;;;25.48;11.13;;;;;;;22.41;30.88;100591.78;5016548;28;20317;-96
2022/09/11 13:32:40;;;;;;;23.90;10.10;;;;;;;22.33;30.78;100589.56;5031264;28;20024;-96
2022/09/11 13:35:18;;;;;;;26.35;10.82;;;;;;;22.28;30.99;100568.56;5026519;28;20447;-96
2022/09/11 13:37:51;;;;;;;24.63;10.55;;;;;;;22.36;30.96;100569.16;5017287;28;20043;-96
2022/09/11 13:40:56;;;;;;;24.77;10.43;;;;;;;22.46;30.68;100569.25;5035922;28;20428;-96
2022/09/11 13:43:36;;;;;;;27.77;9.20;;;;;;;22.45;30.50;100567.59;5040973;28;20100;-96
2022/09/11 13:46:14;;;;;;;17.17;9.13;;;;;;;22.46;30.68;100580.13;5031895;28;20060;-96
2022/09/11 13:48:44;;;;;;;19.85;9.43;;;;;;;22.42;30.74;100573.53;5043220;28;20029;-96
2022/09/11 13:51:14;;;;;;;24.13;9.32;;;;;;;22.29;31.19;100575.66;5030161;28;20028;-96
2022/09/11 13:53:41;;;;;;;16.60;8.68;;;;;;;22.39;31.04;100574.91;5027560;28;20102;-96
2022/09/11 13:56:46;;;;;;;18.17;9.10;;;;;;;22.39;30.98;100576.81;5027432;28;20037;-96
2022/09/11 13:59:48;;;;;;;21.42;8.90;;;;;;;22.45;31.28;100605.72;5029083;28;20104;-96
2022/09/11 14:02:43;;;;;;;17.15;7.97;;;;;;;22.48;30.93;100599.75;5058717;28;20059;-96
2022/09/11 14:05:38;;;;;;;15.82;7.38;;;;;;;22.26;31.05;100573.41;5061318;28;20036;-96
2022/09/11 14:08:23;;;;;;;20.02;8.10;;;;;;;22.20;31.35;100570.94;5022000;28;20075;-95
2022/09/11 14:10:52;;;;;;;15.82;7.85;;;;;;;22.25;31.15;100588.13;5041254;28;20024;-96
2022/09/11 14:13:20;;;;;;;16.98;8.10;;;;;;;22.41;31.39;100604.59;5037729;28;20075;-96
2022/09/11 14:15:46;;;;;;;18.20;7.60;;;;;;;22.44;31.30;100598.63;5042763;28;20031;-96
2022/09/11 14:18:34;;;;;;;18.60;7.35;;;;;;;22.20;31.51;100571.75;5055125;28;20111;-96
2022/09/11 14:21:04;;;;;;;14.18;6.90;;;;;;;22.26;31.23;100575.31;5033629;28;20029;-96
2022/09/11 14:23:31;;;;;;;16.88;7.57;;;;;;;22.26;31.39;100587.03;5030114;28;20025;-96
2022/09/11 14:26:15;;;;;;;15.70;7.10;;;;;;;22.25;31.42;100582.69;5033842;28;20261;-96
2022/09/11 14:28:43;;;;;;;14.10;6.95;;;;;;;22.25;31.53;100579.94;5026130;28;20043;-96
2022/09/11 14:31:13;;;;;;;14.80;6.90;;;;;;;22.18;31.79;100573.91;5042584;28;20035;-96
2022/09/11 14:33:42;;;;;;;15.00;6.72;;;;;;;22.20;31.59;100576.38;5021958;28;20033;-96
2022/09/11 14:36:28;;;;;;;11.25;6.60;;;;;;;22.41;31.51;100593.72;5025360;28;20041;-96
2022/09/11 14:39:04;;;;;;;12.48;6.35;;;;;;;22.29;31.34;100572.13;5036443;28;20027;-96
2022/09/11 14:41:33;;;;;;;12.55;6.80;;;;;;;22.24;31.39;100561.97;5026305;28;20028;-96
2022/09/11 14:43:59;;;;;;;10.75;6.15;;;;;;;22.23;31.28;100563.06;5035388;28;20045;-96
2022/09/11 14:46:26;;;;;;;10.80;5.47;;;;;;;22.17;31.29;100555.13;5033176;28;20040;-96
2022/09/11 14:49:01;;;;;;;10.02;5.82;;;;;;;22.24;31.52;100566.59;5035041;28;20025;-96
2022/09/11 14:51:27;;;;;;;13.63;6.10;;;;;;;22.38;31.39;100589.59;5046063;28;20029;-96
2022/09/11 14:53:54;;;;;;;13.57;5.93;;;;;;;22.23;31.49;100571.22;5030818;28;20033;-96
2022/09/11 14:56:24;;;;;;;12.48;5.78;;;;;;;22.38;31.48;100591.50;5026129;28;20186;-96
2022/09/11 14:58:51;;;;;;;10.15;5.20;;;;;;;22.36;31.53;100596.41;5014996;28;20021;-95
2022/09/11 15:01:18;;;;;;;10.52;5.70;;;;;;;22.14;31.48;100553.72;5035725;28;20024;-96
2022/09/11 15:03:45;;;;;;;11.05;5.40;;;;;;;22.17;31.26;100566.00;5037545;28;20067;-96
2022/09/11 15:06:16;;;;;;;14.57;5.50;;;;;;;22.14;31.58;100567.34;5020136;28;20486;-96
2022/09/11 15:08:46;;;;;;;10.82;5.88;;;;;;;22.12;31.76;100564.06;5033110;28;20048;-96
2022/09/11 15:11:36;;;;;;;11.38;5.43;;;;;;;22.19;31.65;100572.81;5048418;28;20047;-96
2022/09/11 15:14:02;;;;;;;8.70;4.68;;;;;;;22.12;31.71;100564.06;5062415;28;20047;-96
2022/09/11 15:16:31;;;;;;;11.00;5.43;;;;;;;22.10;31.78;100567.03;5032359;28;20032;-96
2022/09/11 15:18:57;;;;;;;11.93;5.43;;;;;;;22.19;31.71;100574.72;5047135;28;20091;-96
2022/09/11 15:21:24;;;;;;;8.07;4.82;;;;;;;22.21;31.85;100584.25;5031031;28;20040;-96
2022/09/11 15:23:51;;;;;;;11.40;5.03;;;;;;;22.27;31.81;100593.31;5055364;28;20036;-96
2022/09/11 15:26:17;;;;;;;9.98;4.53;;;;;;;22.12;31.80;100570.31;5039863;28;20473;-96
2022/09/11 15:28:54;;;;;;;9.65;5.05;;;;;;;22.08;31.87;100562.94;5039948;28;20058;-96
2022/09/11 15:31:22;;;;;;;6.40;4.30;;;;;;;22.15;31.90;100566.25;5048883;28;20033;-96
2022/09/11 15:33:51;;;;;;;11.05;4.78;;;;;;;22.21;31.85;100580.72;5040034;28;20028;-96
2022/09/11 15:36:17;;;;;;;8.27;4.70;;;;;;;22.07;31.89;100564.00;5055262;28;20056;-96
2022/09/11 15:38:49;;;;;;;7.65;4.63;;;;;;;22.05;31.95;100568.91;5040541;28;20032;-96
2022/09/11 15:41:17;;;;;;;6.70;4.32;;;;;;;22.07;31.88;100566.75;5035808;28;20055;-96
2022/09/11 15:43:45;;;;;;;9.30;4.50;;;;;;;21.97;31.84;100561.22;5041248;28;20013;-96
2022/09/11 15:46:12;;;;;;;7.35;4.10;;;;;;;22.18;31.98;100589.41;5047675;28;20083;-96
2022/09/11 15:48:48;;;;;;;7.60;4.15;;;;;;;22.00;31.98;100560.69;5040763;28;20043;-96
2022/09/11 15:52:04;;;;;;;7.13;4.20;;;;;;;22.15;32.14;100584.50;5046768;28;20032;-96
2022/09/11 15:57:46;;;;;;;7.50;3.75;;;;;;;21.89;32.10;100566.06;5077481;28;20067;-96
2022/09/11 16:00:16;;;;;;;8.63;4.38;;;;;;;22.00;32.11;100563.41;5032504;28;20024;-96
2022/09/11 16:02:44;;;;;;;5.88;3.72;;;;;;;21.92;32.14;100576.41;5027951;28;20040;-96
2022/09/11 16:05:11;;;;;;;7.15;4.40;;;;;;;21.88;32.23;100572.56;5039466;28;20032;-96
2022/09/11 16:07:47;;;;;;;9.52;4.03;;;;;;;21.87;32.23;100568.22;5039111;28;20028;-96
2022/09/11 16:10:29;;;;;;;8.98;3.85;;;;;;;21.83;32.29;100567.06;5032823;28;20028;-96
2022/09/11 16:13:01;;;;;;;8.70;4.28;;;;;;;21.86;32.37;100565.75;5037948;28;20052;-95
2022/09/11 16:15:34;;;;;;;5.07;3.33;;;;;;;21.82;32.26;100573.59;5033310;28;20093;-96
2022/09/11 16:18:00;;;;;;;6.50;3.65;;;;;;;21.87;32.30;100578.25;5036759;28;20019;-96
2022/09/11 16:20:30;;;;;;;7.03;3.60;;;;;;;21.96;32.40;100603.13;5042393;28;20028;-96
2022/09/11 16:23:05;;;;;;;6.10;3.47;;;;;;;21.87;32.32;100587.25;5041825;28;20119;-96
2022/09/11 16:26:01;;;;;;;5.82;3.40;;;;;;;21.82;32.44;100580.94;5008440;28;20033;-96
2022/09/11 16:28:39;;;;;;;6.18;3.65;;;;;;;21.71;32.25;100574.56;5016181;28;20462;-96
2022/09/11 16:31:07;;;;;;;7.38;3.28;;;;;;;21.71;32.52;100575.41;5017863;28;20057;-96
2022/09/11 16:33:43;;;;;;;5.47;3.13;;;;;;;21.73;32.50;100573.25;5023012;28;20068;-96
2022/09/11 16:36:17;;;;;;;6.07;3.70;;;;;;;21.78;32.49;100596.94;5012080;28;20132;-96
2022/09/11 16:38:53;;;;;;;5.55;3.10;;;;;;;21.67;32.31;100573.47;5024683;28;20029;-95
2022/09/11 16:41:20;;;;;;;12.00;3.40;;;;;;;21.70;32.45;100584.66;5020531;28;20037;-96
2022/09/11 16:43:52;;;;;;;5.68;3.45;;;;;;;21.62;32.51;100592.44;5019602;28;20112;-96
2022/09/11 16:46:23;;;;;;;5.55;2.95;;;;;;;21.65;32.49;100583.78;5017597;28;20051;-96
2022/09/11 16:48:51;;;;;;;7.05;2.90;;;;;;;21.59;32.45;100588.31;5023929;28;20035;-96
2022/09/11 16:51:22;;;;;;;5.18;2.92;;;;;;;21.55;32.45;100588.03;5009865;28;20037;-96
2022/09/11 16:53:50;;;;;;;5.88;3.28;;;;;;;21.60;32.49;100589.16;5025529;28;20045;-96
2022/09/11 16:56:26;;;;;;;7.85;3.08;;;;;;;21.52;32.60;100587.72;5025645;28;20036;-96
2022/09/11 16:59:12;;;;;;;5.47;3.20;;;;;;;21.47;32.71;100591.22;5033608;28;20076;-96
2022/09/11 17:02:10;;;;;;;4.20;2.80;;;;;;;21.68;32.29;100615.88;5032236;28;20037;-96
2022/09/11 17:04:41;;;;;;;4.43;2.47;;;;;;;21.63;32.50;100618.53;5013726;28;20053;-96
2022/09/11 17:07:07;;;;;;;4.22;2.25;;;;;;;21.43;32.79;100600.91;5016123;28;20032;-96
2022/09/11 17:09:38;;;;;;;6.70;2.83;;;;;;;21.64;32.67;100625.63;5000608;28;20071;-96
2022/09/11 17:12:04;;;;;;;8.77;2.65;;;;;;;21.52;32.67;100610.28;5021022;28;20481;-96
2022/09/11 17:14:30;;;;;;;12.13;3.13;;;;;;;21.49;32.30;100602.66;5016197;28;20029;-96
2022/09/11 17:16:55;;;;;;;10.23;4.50;;;;;;;21.46;32.53;100595.00;5019197;28;20383;-96
2022/09/11 17:19:21;;;;;;;23.13;6.18;;;;;;;21.41;32.70;100594.91;5022269;28;20025;-96
2022/09/11 17:21:47;;;;;;;23.35;7.13;;;;;;;21.34;32.79;100607.88;5006092;28;20055;-96
2022/09/11 17:24:16;;;;;;;32.33;7.97;;;;;;;21.35;32.60;100593.19;5021577;28;20041;-96
2022/09/11 17:26:42;;;;;;;29.95;7.13;;;;;;;21.33;32.34;100595.34;5021954;28;20021;-96
2022/09/11 17:29:08;;;;;;;21.15;6.38;;;;;;;21.34;32.11;100602.44;5016296;28;20212;-96
2022/09/11 17:31:34;;;;;;;27.88;6.88;;;;;;;21.34;31.95;100592.38;5019267;28;20385;-95
2022/09/11 17:33:59;;;;;;;30.17;6.70;;;;;;;21.34;31.99;100591.56;4989578;28;20029;-95
2022/09/11 17:36:25;;;;;;;27.35;6.45;;;;;;;21.17;32.24;100575.34;5014149;28;20107;-96
2022/09/11 17:38:51;;;;;;;23.23;6.32;;;;;;;21.30;32.07;100583.09;4999784;28;20033;-96
2022/09/11 17:41:18;;;;;;;25.50;6.95;;;;;;;21.34;32.08;100588.84;5027589;28;20112;-96
2022/09/11 17:43:44;;;;;;;22.33;6.80;;;;;;;21.45;32.23;100620.50;5002374;28;20091;-96
2022/09/11 17:46:13;;;;;;;23.40;6.90;;;;;;;21.36;31.86;100617.41;4990582;28;20024;-96
2022/09/11 17:48:42;;;;;;;24.98;6.65;;;;;;;21.33;31.89;100612.47;5015883;28;20093;-96
2022/09/11 17:51:11;;;;;;;21.30;7.38;;;;;;;21.24;32.04;100586.03;5033593;28;20089;-96
2022/09/11 17:53:50;;;;;;;22.13;6.63;;;;;;;21.26;31.99;100600.16;5014737;28;20182;-96
2022/09/11 17:56:19;;;;;;;17.75;6.40;;;;;;;21.19;32.04;100590.31;5004665;28;20026;-96
2022/09/11 17:58:49;;;;;;;16.60;6.07;;;;;;;21.15;32.02;100600.03;5023832;28;20028;-96
2022/09/11 18:01:14;;;;;;;18.17;6.18;;;;;;;21.36;32.02;100619.31;5008824;28;20054;-96
2022/09/11 18:03:40;;;;;;;16.80;6.40;;;;;;;21.12;31.79;100594.28;4999872;28;20393;-96
2022/09/11 18:06:21;;;;;;;15.85;5.90;;;;;;;21.09;31.91;100595.59;5009732;28;20096;-96
2022/09/11 18:08:47;;;;;;;17.55;5.57;;;;;;;21.13;31.97;100602.19;5014007;28;20048;-96
2022/09/11 18:11:20;;;;;;;42.30;10.00;;;;;;;21.19;36.16;100612.03;5006232;28;20056;-96
2022/09/11 18:13:46;;;;;;;51.55;10.40;;;;;;;21.15;37.15;100608.19;5006409;28;20025;-96
2022/09/11 18:16:17;;;;;;;46.53;11.23;;;;;;;21.25;37.24;100612.09;5012617;28;20051;-96
2022/09/11 18:18:53;;;;;;;43.53;11.23;;;;;;;21.19;39.69;100616.66;5012176;28;20033;-96
2022/09/11 18:21:39;;;;;;;51.08;12.20;;;;;;;21.35;38.63;100632.09;5004646;28;20505;-96
2022/09/11 18:24:10;;;;;;;41.65;10.27;;;;;;;21.19;37.54;100613.94;5019580;28;20021;-96
2022/09/11 18:26:45;;;;;;;45.65;11.20;;;;;;;21.23;36.75;100615.09;5011260;28;20033;-96
2022/09/11 18:29:48;;;;;;;34.75;10.90;;;;;;;21.09;36.23;100595.59;5021440;28;20028;-96
2022/09/11 18:35:54;;;;;;;62.03;15.52;;;;;;;21.13;38.89;100607.63;5051542;28;20041;-96
2022/09/11 18:38:29;;;;;;;68.25;17.80;;;;;;;21.36;42.28;100627.47;5011427;28;20042;-96
2022/09/11 18:44:24;;;;;;;93.30;28.17;;;;;;;21.30;43.54;100606.72;5011103;28;20057;-96
2022/09/11 18:46:54;;;;;;;84.13;31.17;;;;;;;21.56;43.47;100633.19;4990879;28;20025;-96
2022/09/11 18:49:41;;;;;;;112.43;36.92;;;;;;;21.40;44.15;100612.28;4982565;28;20061;-96
2022/09/11 18:52:13;;;;;;;99.15;34.85;;;;;;;21.42;43.51;100615.59;5012416;28;20034;-96
2022/09/11 18:54:42;;;;;;;91.00;31.65;;;;;;;21.53;43.47;100616.56;4983165;28;20103;-96
2022/09/11 18:57:11;;;;;;;114.93;34.78;;;;;;;21.46;43.67;100603.16;5009540;28;20031;-96
2022/09/11 18:59:38;;;;;;;150.80;40.58;;;;;;;21.62;43.51;100615.00;4999872;28;20033;-96
2022/09/11 19:02:17;;;;;;;133.13;38.42;;;;;;;21.73;43.24;100635.81;4996571;28;20030;-96
2022/09/11 19:05:06;;;;;;;118.22;37.03;;;;;;;21.50;44.20;100617.88;5004522;28;20030;-96
2022/09/11 19:07:35;;;;;;;136.23;39.13;;;;;;;21.55;45.00;100623.38;5007847;28;20473;-96
2022/09/11 19:10:09;;;;;;;111.38;36.40;;;;;;;21.67;43.55;100622.41;5009933;28;20025;-96
2022/09/11 19:12:59;;;;;;;120.15;36.35;;;;;;;21.41;44.01;100597.63;5000750;28;20030;-96
2022/09/11 19:15:59;;;;;;;106.45;33.60;;;;;;;21.65;45.24;100630.00;4997523;28;20136;-95
